createdAt,value
2019-05-26T00:00:46.258Z,2.23
2019-05-26T00:03:14.826Z,1.60
2019-05-26T00:05:43.247Z,2.07
2019-05-26T00:08:11.636Z,1.63
2019-05-26T00:10:40.045Z,1.63
2019-05-26T00:13:08.447Z,2.67
2019-05-26T00:15:36.862Z,1.97
2019-05-26T00:18:05.254Z,1.97
2019-05-26T00:20:33.668Z,2.17
2019-05-26T00:23:02.069Z,1.83
2019-05-26T00:25:30.494Z,2.20
2019-05-26T00:27:58.887Z,1.93
2019-05-26T00:30:27.301Z,1.70
2019-05-26T00:32:55.710Z,2.13
2019-05-26T00:35:24.129Z,1.83
2019-05-26T00:37:52.517Z,1.97
2019-05-26T00:40:20.999Z,2.20
2019-05-26T00:42:49.400Z,2.23
2019-05-26T00:45:18.074Z,1.97
2019-05-26T00:47:46.465Z,2.53
2019-05-26T00:50:16.813Z,2.00
2019-05-26T00:52:45.287Z,2.07
2019-05-26T00:55:14.445Z,1.90
2019-05-26T00:57:42.844Z,1.90
2019-05-26T01:00:11.696Z,1.90
2019-05-26T01:02:40.204Z,1.83
2019-05-26T01:05:09.577Z,2.33
2019-05-26T01:07:38.340Z,2.13
2019-05-26T01:10:09.774Z,1.90
2019-05-26T01:12:38.156Z,1.97
2019-05-26T01:15:07.812Z,1.77
2019-05-26T01:17:36.277Z,2.03
2019-05-26T01:20:06.834Z,2.20
2019-05-26T01:22:35.248Z,2.17
2019-05-26T01:25:05.220Z,2.23
2019-05-26T01:27:33.623Z,2.33
2019-05-26T01:30:02.212Z,1.97
2019-05-26T01:32:30.738Z,2.30
2019-05-26T01:34:59.138Z,1.93
2019-05-26T01:37:27.635Z,2.60
2019-05-26T01:39:56.035Z,1.80
2019-05-26T01:42:24.444Z,2.03
2019-05-26T01:44:52.840Z,2.17
2019-05-26T01:47:21.251Z,2.30
2019-05-26T01:49:49.655Z,2.03
2019-05-26T01:52:18.068Z,2.20
2019-05-26T01:54:46.477Z,2.30
2019-05-26T01:57:14.884Z,2.50
2019-05-26T01:59:43.314Z,2.00
2019-05-26T02:02:11.732Z,1.70
2019-05-26T02:04:40.131Z,2.17
2019-05-26T02:07:08.553Z,2.47
2019-05-26T02:09:36.950Z,2.30
2019-05-26T02:12:05.629Z,2.30
2019-05-26T02:14:34.030Z,2.50
2019-05-26T02:17:02.445Z,2.70
2019-05-26T02:19:30.852Z,2.30
2019-05-26T02:21:59.268Z,2.37
2019-05-26T02:24:27.670Z,2.37
2019-05-26T02:26:56.083Z,2.13
2019-05-26T02:29:24.477Z,2.23
2019-05-26T02:31:52.888Z,2.53
2019-05-26T02:34:21.288Z,2.40
2019-05-26T02:36:49.698Z,2.50
2019-05-26T02:39:18.096Z,2.23
2019-05-26T02:41:46.539Z,2.70
2019-05-26T02:44:14.908Z,2.67
2019-05-26T02:46:43.329Z,2.90
2019-05-26T02:49:11.727Z,2.30
2019-05-26T02:51:40.139Z,2.40
2019-05-26T02:54:08.543Z,2.33
2019-05-26T02:56:37.332Z,2.70
2019-05-26T02:59:05.747Z,2.60
2019-05-26T03:01:34.398Z,3.00
2019-05-26T03:04:02.917Z,2.20
2019-05-26T03:06:33.186Z,3.00
2019-05-26T03:09:20.856Z,2.93
2019-05-26T03:11:35.183Z,2.40
2019-05-26T03:14:04.853Z,2.23
2019-05-26T03:16:36.283Z,2.80
2019-05-26T03:19:04.957Z,2.40
2019-05-26T03:21:35.212Z,2.33
2019-05-26T03:24:04.721Z,2.57
2019-05-26T03:26:33.133Z,2.60
2019-05-26T03:29:01.546Z,2.97
2019-05-26T03:31:30.033Z,2.87
2019-05-26T03:33:58.517Z,2.47
2019-05-26T03:36:26.910Z,2.57
2019-05-26T03:38:55.318Z,2.87
2019-05-26T03:41:23.730Z,3.40
2019-05-26T03:43:52.142Z,2.80
2019-05-26T03:46:20.744Z,3.60
2019-05-26T03:48:49.441Z,2.63
2019-05-26T03:51:17.834Z,3.40
2019-05-26T03:53:46.258Z,2.47
2019-05-26T03:56:14.657Z,3.37
2019-05-26T03:58:43.144Z,4.00
2019-05-26T04:01:11.616Z,3.10
2019-05-26T04:03:40.171Z,2.80
2019-05-26T04:06:08.745Z,3.13
2019-05-26T04:08:37.163Z,3.63
2019-05-26T04:11:05.926Z,3.47
2019-05-26T04:13:34.397Z,3.43
2019-05-26T04:16:02.871Z,3.40
2019-05-26T04:18:31.289Z,3.47
2019-05-26T04:20:59.709Z,3.17
2019-05-26T04:23:28.132Z,3.43
2019-05-26T04:25:56.538Z,5.20
2019-05-26T04:28:24.952Z,3.87
2019-05-26T04:30:53.390Z,4.10
2019-05-26T04:33:21.806Z,3.30
2019-05-26T04:35:50.210Z,4.00
2019-05-26T04:38:18.620Z,3.83
2019-05-26T04:40:47.017Z,3.63
2019-05-26T04:43:15.506Z,3.70
2019-05-26T04:45:43.930Z,3.60
2019-05-26T04:48:12.422Z,4.70
2019-05-26T04:50:40.820Z,4.27
2019-05-26T04:53:09.234Z,3.90
2019-05-26T04:55:37.639Z,3.97
2019-05-26T04:58:06.057Z,4.23
2019-05-26T05:00:34.470Z,4.43
2019-05-26T05:03:02.899Z,4.23
2019-05-26T05:05:31.308Z,4.53
2019-05-26T05:07:59.731Z,4.50
2019-05-26T05:10:41.212Z,4.67
2019-05-26T05:12:58.394Z,3.97
2019-05-26T05:15:26.886Z,4.47
2019-05-26T05:17:55.304Z,5.40
2019-05-26T05:20:23.706Z,4.93
2019-05-26T05:22:52.124Z,4.23
2019-05-26T05:25:20.528Z,5.53
2019-05-26T05:27:49.021Z,5.13
2019-05-26T05:30:18.161Z,5.20
2019-05-26T05:32:46.653Z,5.57
2019-05-26T05:35:17.413Z,5.10
2019-05-26T05:37:45.852Z,5.00
2019-05-26T05:40:14.743Z,5.37
2019-05-26T05:42:43.173Z,4.73
2019-05-26T05:45:13.499Z,6.43
2019-05-26T05:47:41.996Z,5.03
2019-05-26T05:50:10.857Z,4.70
2019-05-26T05:52:39.268Z,5.17
2019-05-26T05:55:08.222Z,4.67
2019-05-26T05:57:37.055Z,5.07
2019-05-26T06:00:09.802Z,4.53
2019-05-26T06:02:38.296Z,4.50
2019-05-26T06:05:07.576Z,4.87
2019-05-26T06:07:35.988Z,3.53
2019-05-26T06:10:09.394Z,4.67
2019-05-26T06:12:38.034Z,4.23
2019-05-26T06:15:11.387Z,3.73
2019-05-26T06:17:40.374Z,4.10
2019-05-26T06:20:11.336Z,3.97
2019-05-26T06:22:39.742Z,4.60
2019-05-26T06:25:09.101Z,4.77
2019-05-26T06:27:37.499Z,4.50
2019-05-26T06:30:08.051Z,3.40
2019-05-26T06:32:36.454Z,3.60
2019-05-26T06:35:06.058Z,3.63
2019-05-26T06:37:34.459Z,3.60
2019-05-26T06:40:02.876Z,4.07
2019-05-26T06:42:31.353Z,3.93
2019-05-26T06:44:59.812Z,3.73
2019-05-26T06:47:28.214Z,4.03
2019-05-26T06:49:56.633Z,4.23
2019-05-26T06:52:25.037Z,4.30
2019-05-26T06:54:53.460Z,5.10
2019-05-26T06:57:21.934Z,4.23
2019-05-26T06:59:50.370Z,4.77
2019-05-26T07:02:18.776Z,3.87
2019-05-26T07:04:47.202Z,5.23
2019-05-26T07:07:15.608Z,4.87
2019-05-26T07:09:44.087Z,4.43
2019-05-26T07:12:12.521Z,5.40
2019-05-26T07:14:40.938Z,4.60
2019-05-26T07:17:09.343Z,4.80
2019-05-26T07:19:37.876Z,4.90
2019-05-26T07:22:06.361Z,5.13
2019-05-26T07:24:34.774Z,5.13
2019-05-26T07:27:03.185Z,5.57
2019-05-26T07:29:31.634Z,5.40
2019-05-26T07:32:00.048Z,5.87
2019-05-26T07:34:28.479Z,5.27
2019-05-26T07:36:56.881Z,5.50
2019-05-26T07:39:25.299Z,5.80
2019-05-26T07:42:09.265Z,5.90
2019-05-26T07:44:23.857Z,8.17
2019-05-26T07:46:52.283Z,8.23
2019-05-26T07:49:20.707Z,8.83
2019-05-26T07:51:49.139Z,10.37
2019-05-26T07:54:25.711Z,9.87
2019-05-26T07:56:48.393Z,8.80
2019-05-26T07:59:16.834Z,9.07
2019-05-26T08:01:45.273Z,8.43
2019-05-26T08:04:13.707Z,8.90
2019-05-26T08:06:42.101Z,8.77
2019-05-26T08:09:10.506Z,7.77
2019-05-26T08:11:38.941Z,8.53
2019-05-26T08:14:07.345Z,9.27
2019-05-26T08:16:35.773Z,9.53
2019-05-26T08:19:04.383Z,9.07
2019-05-26T08:21:32.802Z,8.63
2019-05-26T08:24:01.193Z,7.80
2019-05-26T08:26:29.611Z,8.43
2019-05-26T08:28:58.010Z,8.27
2019-05-26T08:31:26.423Z,7.57
2019-05-26T08:33:54.850Z,8.37
2019-05-26T08:36:23.283Z,7.57
2019-05-26T08:38:51.688Z,6.37
2019-05-26T08:41:20.109Z,7.53
2019-05-26T08:43:48.577Z,6.70
2019-05-26T08:46:17.005Z,6.27
2019-05-26T08:48:45.414Z,6.10
2019-05-26T08:51:13.833Z,6.17
2019-05-26T08:53:42.258Z,7.13
2019-05-26T08:56:10.662Z,5.50
2019-05-26T08:58:39.064Z,6.37
2019-05-26T09:01:07.509Z,7.47
2019-05-26T09:03:35.918Z,6.67
2019-05-26T09:06:04.619Z,6.40
2019-05-26T09:08:33.042Z,6.70
2019-05-26T09:11:01.450Z,5.13
2019-05-26T09:13:29.862Z,5.47
2019-05-26T09:15:58.311Z,5.27
2019-05-26T09:18:26.721Z,4.90
2019-05-26T09:20:55.139Z,5.53
2019-05-26T09:23:23.673Z,5.23
2019-05-26T09:25:52.091Z,4.80
2019-05-26T09:28:20.503Z,4.23
2019-05-26T09:30:48.911Z,3.63
2019-05-26T09:33:17.323Z,4.50
2019-05-26T09:35:45.821Z,3.60
2019-05-26T09:38:14.240Z,4.33
2019-05-26T09:40:42.650Z,3.40
2019-05-26T09:43:16.066Z,2.93
2019-05-26T09:45:41.213Z,3.10
2019-05-26T09:48:09.596Z,4.40
2019-05-26T09:50:38.025Z,3.53
2019-05-26T09:53:06.425Z,3.50
2019-05-26T09:55:34.845Z,4.13
2019-05-26T09:58:03.255Z,4.23
2019-05-26T10:00:31.696Z,3.63
2019-05-26T10:03:00.095Z,4.53
2019-05-26T10:08:25.840Z,3.10
2019-05-26T10:10:54.267Z,5.37
2019-05-26T10:13:31.481Z,3.63
2019-05-26T10:15:53.014Z,4.00
2019-05-26T10:18:21.421Z,3.57
2019-05-26T10:20:49.847Z,3.17
2019-05-26T10:23:18.260Z,3.17
2019-05-26T10:25:46.667Z,3.20
2019-05-26T10:28:15.095Z,3.40
2019-05-26T10:30:43.491Z,3.73
2019-05-26T10:33:11.917Z,2.80
2019-05-26T10:35:40.313Z,3.27
2019-05-26T10:38:08.730Z,2.93
2019-05-26T10:40:37.129Z,3.30
2019-05-26T10:43:05.548Z,3.30
2019-05-26T10:45:34.489Z,3.30
2019-05-26T10:48:03.072Z,3.40
2019-05-26T10:50:31.478Z,2.93
2019-05-26T10:52:59.895Z,3.73
2019-05-26T10:55:28.380Z,2.73
2019-05-26T10:57:56.793Z,3.07
2019-05-26T11:00:25.263Z,2.80
2019-05-26T11:02:53.678Z,3.10
2019-05-26T11:05:22.082Z,2.87
2019-05-26T11:07:50.525Z,2.50
2019-05-26T11:10:19.095Z,2.87
2019-05-26T11:12:47.493Z,2.80
2019-05-26T11:15:16.144Z,2.67
2019-05-26T11:17:44.636Z,1.90
2019-05-26T11:20:15.175Z,2.03
2019-05-26T11:22:43.600Z,2.67
2019-05-26T11:25:12.343Z,2.67
2019-05-26T11:27:40.763Z,2.07
2019-05-26T11:30:14.198Z,2.13
2019-05-26T11:32:42.628Z,2.20
2019-05-26T11:35:11.283Z,2.20
2019-05-26T11:37:39.683Z,2.37
2019-05-26T11:40:08.326Z,2.07
2019-05-26T11:42:36.832Z,1.50
2019-05-26T11:45:09.811Z,2.43
2019-05-26T11:47:38.230Z,1.40
2019-05-26T11:50:08.085Z,1.47
2019-05-26T11:52:36.509Z,1.60
2019-05-26T11:55:06.831Z,1.63
2019-05-26T11:57:36.651Z,1.90
2019-05-26T12:00:08.049Z,1.30
2019-05-26T12:02:36.939Z,1.33
2019-05-26T12:05:07.928Z,1.30
2019-05-26T12:07:36.389Z,1.50
2019-05-26T12:10:08.781Z,1.30
2019-05-26T12:12:37.234Z,4.23
2019-05-26T12:15:08.449Z,2.60
2019-05-26T12:17:37.237Z,2.00
2019-05-26T12:20:06.595Z,1.77
2019-05-26T12:22:35.012Z,1.50
2019-05-26T12:25:04.685Z,2.63
2019-05-26T12:27:33.103Z,2.03
2019-05-26T12:30:01.557Z,2.30
2019-05-26T12:32:30.009Z,1.77
2019-05-26T12:34:58.413Z,2.80
2019-05-26T12:37:26.829Z,3.07
2019-05-26T12:39:55.236Z,1.87
2019-05-26T12:42:23.655Z,3.37
2019-05-26T12:44:52.061Z,2.00
2019-05-26T12:47:20.480Z,2.80
2019-05-26T12:49:48.880Z,1.93
2019-05-26T12:52:17.371Z,2.70
2019-05-26T12:54:45.778Z,2.00
2019-05-26T12:57:14.195Z,1.90
2019-05-26T12:59:42.618Z,1.57
2019-05-26T13:02:11.015Z,1.73
2019-05-26T13:04:39.416Z,1.70
2019-05-26T13:07:07.821Z,1.80
2019-05-26T13:09:36.235Z,1.90
2019-05-26T13:12:04.912Z,1.90
2019-05-26T13:14:33.335Z,1.50
2019-05-26T13:17:01.866Z,1.90
2019-05-26T13:19:30.343Z,1.40
2019-05-26T13:21:58.741Z,1.77
2019-05-26T13:24:27.158Z,1.73
2019-05-26T13:26:55.563Z,1.60
2019-05-26T13:29:25.933Z,1.50
2019-05-26T13:31:54.155Z,1.83
2019-05-26T13:34:22.559Z,2.03
2019-05-26T13:36:50.969Z,1.60
2019-05-26T13:39:19.384Z,1.60
2019-05-26T13:41:47.850Z,1.60
2019-05-26T13:44:16.228Z,1.57
2019-05-26T13:46:44.634Z,1.77
2019-05-26T13:49:13.082Z,1.80
2019-05-26T13:51:41.458Z,1.87
2019-05-26T13:54:09.885Z,2.10
2019-05-26T13:56:38.295Z,2.50
2019-05-26T13:59:06.712Z,4.97
2019-05-26T14:01:35.111Z,6.10
2019-05-26T14:04:03.599Z,4.27
2019-05-26T14:06:32.020Z,6.60
2019-05-26T14:09:02.286Z,6.10
2019-05-26T14:11:30.579Z,6.40
2019-05-26T14:13:59.011Z,5.57
2019-05-26T14:16:30.160Z,5.13
2019-05-26T14:19:00.026Z,3.90
2019-05-26T14:21:28.432Z,3.07
2019-05-26T14:23:56.850Z,2.50
2019-05-26T14:26:25.255Z,2.30
2019-05-26T14:28:53.688Z,2.33
2019-05-26T14:31:22.087Z,2.10
2019-05-26T14:33:50.510Z,2.20
2019-05-26T14:36:18.918Z,2.00
2019-05-26T14:38:47.331Z,2.10
2019-05-26T14:41:15.734Z,2.20
2019-05-26T14:43:44.157Z,1.93
2019-05-26T14:46:12.558Z,1.93
2019-05-26T14:48:40.975Z,1.87
2019-05-26T14:51:09.375Z,1.70
2019-05-26T14:53:37.787Z,1.70
2019-05-26T14:56:06.204Z,1.50
2019-05-26T14:58:34.619Z,1.67
2019-05-26T15:01:03.026Z,1.90
2019-05-26T15:03:31.452Z,1.77
2019-05-26T15:06:06.010Z,2.27
2019-05-26T15:08:29.986Z,1.40
2019-05-26T15:10:58.397Z,1.97
2019-05-26T15:13:26.798Z,2.20
2019-05-26T15:16:08.828Z,1.60
2019-05-26T15:18:25.342Z,1.50
2019-05-26T15:20:55.971Z,1.93
2019-05-26T15:23:23.907Z,1.80
2019-05-26T15:25:52.319Z,1.40
2019-05-26T15:28:20.724Z,1.70
2019-05-26T15:30:49.163Z,1.80
2019-05-26T15:33:17.574Z,2.00
2019-05-26T15:35:46.001Z,1.57
2019-05-26T15:38:14.404Z,1.63
2019-05-26T15:40:42.821Z,1.17
2019-05-26T15:43:11.223Z,1.63
2019-05-26T15:45:39.709Z,1.43
2019-05-26T15:48:08.041Z,1.67
2019-05-26T15:50:36.544Z,1.30
2019-05-26T15:53:04.959Z,1.60
2019-05-26T15:55:33.375Z,1.53
2019-05-26T15:58:01.786Z,1.43
2019-05-26T16:00:30.199Z,1.80
2019-05-26T16:02:58.603Z,1.70
2019-05-26T16:05:27.024Z,1.47
2019-05-26T16:07:55.449Z,1.40
2019-05-26T16:10:23.863Z,1.67
2019-05-26T16:12:52.267Z,1.73
2019-05-26T16:15:20.823Z,1.50
2019-05-26T16:17:49.234Z,1.53
2019-05-26T16:20:18.087Z,1.90
2019-05-26T16:22:46.490Z,1.33
2019-05-26T16:25:15.356Z,1.73
2019-05-26T16:27:43.759Z,1.40
2019-05-26T16:30:12.414Z,1.30
2019-05-26T16:32:40.813Z,1.60
2019-05-26T16:35:09.578Z,1.90
2019-05-26T16:37:37.990Z,1.57
2019-05-26T16:40:08.152Z,2.93
2019-05-26T16:42:36.562Z,1.67
2019-05-26T16:45:06.986Z,1.43
2019-05-26T16:47:35.462Z,1.67
2019-05-26T16:50:05.620Z,1.47
2019-05-26T16:52:34.022Z,1.50
2019-05-26T16:55:02.493Z,1.67
2019-05-26T16:57:30.908Z,1.40
2019-05-26T16:59:59.335Z,1.53
2019-05-26T17:02:35.110Z,1.87
2019-05-26T17:05:04.496Z,1.43
2019-05-26T17:07:32.870Z,1.77
2019-05-26T17:10:01.389Z,1.50
2019-05-26T17:12:29.775Z,1.60
2019-05-26T17:14:58.192Z,1.40
2019-05-26T17:17:26.609Z,2.00
2019-05-26T17:19:55.027Z,1.97
2019-05-26T17:22:23.433Z,2.03
2019-05-26T17:24:51.873Z,1.60
2019-05-26T17:27:20.452Z,1.50
2019-05-26T17:29:48.865Z,1.30
2019-05-26T17:32:17.273Z,1.40
2019-05-26T17:34:45.672Z,1.70
2019-05-26T17:37:14.093Z,1.73
2019-05-26T17:39:42.507Z,1.50
2019-05-26T17:42:10.989Z,1.67
2019-05-26T17:44:39.410Z,1.53
2019-05-26T17:47:07.837Z,1.83
2019-05-26T17:49:36.324Z,1.77
2019-05-26T17:52:04.883Z,1.60
2019-05-26T17:54:33.288Z,2.00
2019-05-26T17:57:01.742Z,1.23
2019-05-26T17:59:30.117Z,1.90
2019-05-26T18:01:58.538Z,1.40
2019-05-26T18:04:26.954Z,1.53
2019-05-26T18:06:55.377Z,1.57
2019-05-26T18:09:23.779Z,1.40
2019-05-26T18:11:52.192Z,1.70
2019-05-26T18:14:20.598Z,3.27
2019-05-26T18:16:49.007Z,1.53
2019-05-26T18:19:17.433Z,1.60
2019-05-26T18:21:45.873Z,1.70
2019-05-26T18:24:14.284Z,1.60
2019-05-26T18:26:42.750Z,2.23
2019-05-26T18:29:11.146Z,2.03
2019-05-26T18:31:39.569Z,1.70
2019-05-26T18:34:07.977Z,1.40
2019-05-26T18:36:36.399Z,1.73
2019-05-26T18:39:07.916Z,1.40
2019-05-26T18:41:36.326Z,2.27
2019-05-26T18:44:05.024Z,1.50
2019-05-26T18:46:33.450Z,1.87
2019-05-26T18:49:01.861Z,1.50
2019-05-26T18:51:30.275Z,1.60
2019-05-26T18:53:58.683Z,1.80
2019-05-26T18:56:27.121Z,1.57
2019-05-26T18:58:55.523Z,1.63
2019-05-26T19:01:23.981Z,1.70
2019-05-26T19:03:52.383Z,1.87
2019-05-26T19:06:20.902Z,1.70
2019-05-26T19:08:49.305Z,1.80
2019-05-26T19:11:17.723Z,1.37
2019-05-26T19:13:46.136Z,1.77
2019-05-26T19:16:14.558Z,1.77
2019-05-26T19:18:42.968Z,1.83
2019-05-26T19:21:11.407Z,1.50
2019-05-26T19:23:39.802Z,1.67
2019-05-26T19:26:08.237Z,1.60
2019-05-26T19:28:36.656Z,1.90
2019-05-26T19:31:05.132Z,1.50
2019-05-26T19:33:33.561Z,1.90
2019-05-26T19:36:01.965Z,1.50
2019-05-26T19:38:30.402Z,1.40
2019-05-26T19:40:58.863Z,1.37
2019-05-26T19:43:27.246Z,1.73
2019-05-26T19:45:55.725Z,1.70
2019-05-26T19:48:35.537Z,1.40
2019-05-26T19:50:54.317Z,1.63
2019-05-26T19:53:22.734Z,1.80
2019-05-26T19:55:51.213Z,1.80
2019-05-26T19:58:19.797Z,1.30
2019-05-26T20:00:48.209Z,1.90
2019-05-26T20:03:16.639Z,1.67
2019-05-26T20:05:45.030Z,1.67
2019-05-26T20:08:13.585Z,1.40
2019-05-26T20:10:41.959Z,1.67
2019-05-26T20:13:10.378Z,1.43
2019-05-26T20:15:38.839Z,2.00
2019-05-26T20:18:07.236Z,1.20
2019-05-26T20:20:35.647Z,1.30
2019-05-26T20:23:04.447Z,1.37
2019-05-26T20:25:32.873Z,1.33
2019-05-26T20:28:01.296Z,1.90
2019-05-26T20:30:29.705Z,1.60
2019-05-26T20:32:58.131Z,1.90
2019-05-26T20:35:26.535Z,1.57
2019-05-26T20:37:54.945Z,1.73
2019-05-26T20:40:23.383Z,1.50
2019-05-26T20:42:51.812Z,1.37
2019-05-26T20:45:20.285Z,1.40
2019-05-26T20:47:48.703Z,1.50
2019-05-26T20:50:28.709Z,1.67
2019-05-26T20:52:47.684Z,1.80
2019-05-26T20:55:16.366Z,1.80
2019-05-26T20:57:44.779Z,1.67
2019-05-26T21:00:15.163Z,1.70
2019-05-26T21:02:43.687Z,1.60
2019-05-26T21:05:12.638Z,1.60
2019-05-26T21:07:41.049Z,1.70
2019-05-26T21:10:10.591Z,1.67
2019-05-26T21:12:39.009Z,1.57
2019-05-26T21:15:08.250Z,1.77
2019-05-26T21:17:36.672Z,1.40
2019-05-26T21:20:08.867Z,1.47
2019-05-26T21:22:37.299Z,1.90
2019-05-26T21:25:06.582Z,1.67
2019-05-26T21:27:35.006Z,2.00
2019-05-26T21:30:05.350Z,1.60
2019-05-26T21:32:33.838Z,1.40
2019-05-26T21:35:02.337Z,1.50
2019-05-26T21:37:30.723Z,1.60
2019-05-26T21:39:59.125Z,1.57
2019-05-26T21:42:27.550Z,1.47
2019-05-26T21:44:55.946Z,2.10
2019-05-26T21:47:24.355Z,1.77
2019-05-26T21:49:52.772Z,1.40
2019-05-26T21:52:21.175Z,1.63
2019-05-26T21:54:49.593Z,1.53
2019-05-26T21:57:17.995Z,1.90
2019-05-26T21:59:46.418Z,2.00
2019-05-26T22:02:14.823Z,1.60
2019-05-26T22:04:43.241Z,1.90
2019-05-26T22:07:11.974Z,1.67
2019-05-26T22:09:40.451Z,1.33
2019-05-26T22:12:08.862Z,1.90
2019-05-26T22:14:37.267Z,1.70
2019-05-26T22:17:05.737Z,1.97
2019-05-26T22:19:34.151Z,2.20
2019-05-26T22:22:02.554Z,1.60
2019-05-26T22:24:30.992Z,1.67
2019-05-26T22:26:59.406Z,2.17
2019-05-26T22:29:27.827Z,1.87
2019-05-26T22:31:56.221Z,1.77
2019-05-26T22:34:24.638Z,1.67
2019-05-26T22:36:53.041Z,1.70
2019-05-26T22:39:21.459Z,1.67
2019-05-26T22:41:49.896Z,1.93
2019-05-26T22:44:18.301Z,1.83
2019-05-26T22:46:46.704Z,1.40
2019-05-26T22:49:15.129Z,1.97
2019-05-26T22:51:43.536Z,1.87
2019-05-26T22:54:12.030Z,1.60
2019-05-26T22:56:40.441Z,1.93
2019-05-26T22:59:08.859Z,1.70
2019-05-26T23:01:37.266Z,1.83
2019-05-26T23:04:05.758Z,1.73
2019-05-26T23:06:34.160Z,2.10
2019-05-26T23:09:02.677Z,1.60
2019-05-26T23:11:31.084Z,1.73
2019-05-26T23:13:59.501Z,2.00
2019-05-26T23:16:27.908Z,1.90
2019-05-26T23:18:56.323Z,2.30
2019-05-26T23:21:24.725Z,1.53
2019-05-26T23:23:53.155Z,2.10
2019-05-26T23:26:21.559Z,2.17
2019-05-26T23:28:49.979Z,2.30
2019-05-26T23:31:18.388Z,2.30
2019-05-26T23:33:46.809Z,2.37
2019-05-26T23:36:15.223Z,2.00
2019-05-26T23:38:43.649Z,2.30
2019-05-26T23:41:12.064Z,2.13
2019-05-26T23:43:40.478Z,2.30
2019-05-26T23:46:08.891Z,2.03
2019-05-26T23:48:37.295Z,2.70
2019-05-26T23:51:05.716Z,2.00
2019-05-26T23:53:34.121Z,2.10
2019-05-26T23:56:02.543Z,2.80
2019-05-26T23:58:30.959Z,2.57
